1993 IONIA (1993061S14042)


On this page: IBTrACS data - Map and Plots - Positions - Intensities - Original source data

Summary

Start Mar 2
End Mar 9
Basin SI
LMI 45 kt
Sources reunion
neumann
In WMO? Yes
Previous storm 1993 HUTELLE (SI)
Previous in basin 1993 HUTELLE (SI)
Concurrent storms 1993 POLLY (SP)
1993 IONIA (SI)
1993 IRMA (WP)
Next in basin Missing
Next storm 1993 IRMA (WP)

top of page IBTrACS Data: File Access

top of page HURSAT Data: File Access

Image of storm

top of page Plots:

Map of storm track will not appear if FTP is down
Time series of cyclone Maximum Sustained Wind will not appear if FTP is down
Time series of cyclone Minimum Central Pressure will not appear if FTP is down

top of page Track Data:Position

reunion neumann
Date Lat Lon Lat Lon
1993-03-02 06:00:00 -14.2 41.8 -14.2 41.8
1993-03-02 12:00:00 -14.8 41.4 -14.8 41.4
1993-03-02 18:00:00 -15.0 41.1 -15.0 41.1
1993-03-03 00:00:00 -15.4 41.4 -15.4 41.4
1993-03-03 06:00:00 -16.2 42.2 -16.2 42.2
1993-03-03 12:00:00 -17.1 43.4 -17.1 43.4
1993-03-03 18:00:00 -16.8 44.0 -16.8 44.0
1993-03-04 00:00:00 -17.5 44.0 -17.5 44.0
1993-03-04 06:00:00 -18.5 44.1 -18.5 44.1
1993-03-04 12:00:00 -19.6 44.6 -19.6 44.6
1993-03-04 18:00:00 -20.4 45.2 -20.4 45.2
1993-03-05 00:00:00 -20.8 46.0 -20.8 46.0
1993-03-05 06:00:00 -21.3 47.4 -21.3 47.4
1993-03-05 12:00:00 -22.4 48.4 -22.4 48.4
1993-03-05 18:00:00 -24.4 48.9 -24.4 48.9
1993-03-06 00:00:00 -25.7 49.4 -25.7 49.4
1993-03-06 06:00:00 -26.7 49.9 -26.7 49.9
1993-03-06 12:00:00 -27.1 49.8 -27.1 49.8
1993-03-06 18:00:00 -27.9 50.2 -27.9 50.2
1993-03-07 00:00:00 -28.9 50.7 -28.9 50.7
1993-03-07 06:00:00 -29.5 51.0 -29.5 51.0
1993-03-07 12:00:00 -30.0 51.9 -30.0 51.9
1993-03-07 18:00:00 -30.1 52.8
1993-03-08 00:00:00 -30.1 54.0
1993-03-08 06:00:00 -30.1 55.3
reunion neumann
1993-03-08 12:00:00 -30.1 56.7
1993-03-08 18:00:00 -30.0 58.2
1993-03-09 00:00:00 -30.0 59.8

top of pageTrack Data:Intensity

reunion neumann
Date Wind Pres Wind Pres
1993-03-02 06:00:00 23. 1000. 30. 1000.
1993-03-02 12:00:00 27. 997. 35. 997.
1993-03-02 18:00:00 27. 998. 35. 998.
1993-03-03 00:00:00 27. 1000. 30. 1000.
1993-03-03 06:00:00 27. 999. 30. 999.
1993-03-03 12:00:00 30. 997. 35. 997.
1993-03-03 18:00:00 34. 995. 40. 995.
1993-03-04 00:00:00 34. 993. 45. 993.
1993-03-04 06:00:00 34. 995. 40. 995.
1993-03-04 12:00:00 30. 998. 30. 998.
1993-03-04 18:00:00 30.
1993-03-05 00:00:00 30.
1993-03-05 06:00:00 30.
1993-03-05 12:00:00 20. 1000. 35.
1993-03-05 18:00:00 23. 998. 35. 998.
1993-03-06 00:00:00 30. 996. 35. 996.
1993-03-06 06:00:00 33. 995. 40. 995.
1993-03-06 12:00:00 33. 995. 40. 995.
1993-03-06 18:00:00 33. 995. 40. 995.
1993-03-07 00:00:00 30. 997. 35. 997.
1993-03-07 06:00:00 27. 998. 35. 998.
1993-03-07 12:00:00 30.
1993-03-07 18:00:00
1993-03-08 00:00:00
1993-03-08 06:00:00
reunion neumann
1993-03-08 12:00:00
1993-03-08 18:00:00
1993-03-09 00:00:00

top of page Links to source data

Source Source file Format
reunion WMO-Best-Tracks.txt:Line=16086:ionia WMO (old format)
neumann tracks.sh:Storm=976:IONIA:BSH991993:Reunion HURDAT